Time;durP1;ratioP1;P1;durP2;ratioP2;P2;SDS_P1;SDS_P2;PMS_P1;PMS_P2;Temp;Humidity;BMP_temperature;BMP_pressure;BME280_temperature;BME280_humidity;BME280_pressure;Samples;Min_cycle;Max_cycle;Signal;HPM_P1;HPM_P2
2022/03/16 00:01:09;;;;;;;36.22;23.30;;;;;;;11.58;55.64;101992.25;4993460;28;20406;-73
2022/03/16 00:03:54;;;;;;;38.80;23.77;;;;;;;11.45;56.38;101990.25;4993202;28;20043;-74
2022/03/16 00:06:39;;;;;;;42.00;25.50;;;;;;;11.33;56.77;101981.66;4973852;28;20055;-74
2022/03/16 00:09:24;;;;;;;49.42;31.08;;;;;;;11.36;56.68;101973.75;4973823;28;20051;-74
2022/03/16 00:12:10;;;;;;;38.72;24.95;;;;;;;11.37;56.65;101975.38;4973715;28;20047;-74
2022/03/16 00:14:55;;;;;;;49.45;31.45;;;;;;;11.38;56.75;101967.97;4979210;28;20050;-73
2022/03/16 00:17:40;;;;;;;50.92;33.85;;;;;;;11.30;56.76;101965.91;4993685;28;20050;-74
2022/03/16 00:20:25;;;;;;;42.13;26.15;;;;;;;11.31;56.73;101964.81;4992962;28;20039;-73
2022/03/16 00:23:09;;;;;;;37.33;25.73;;;;;;;11.32;56.55;101967.25;4993056;28;20050;-74
2022/03/16 00:25:57;;;;;;;44.33;26.92;;;;;;;11.57;55.89;101960.69;4998600;28;20046;-74
2022/03/16 00:28:42;;;;;;;57.83;33.50;;;;;;;11.51;55.95;101959.13;4992813;28;20295;-74
2022/03/16 00:31:27;;;;;;;38.85;25.42;;;;;;;11.45;56.12;101963.81;4998288;28;20406;-74
2022/03/16 00:34:12;;;;;;;;;;;;;;;11.43;56.14;101954.31;4993311;28;20042;-74
2022/03/16 00:36:57;;;;;;;51.97;33.78;;;;;;;11.55;55.57;101955.53;5009822;28;20297;-74
2022/03/16 00:39:41;;;;;;;50.65;27.30;;;;;;;11.44;56.01;101950.50;4992903;28;20038;-74
2022/03/16 00:42:28;;;;;;;54.17;33.33;;;;;;;11.43;56.33;101960.56;4993127;28;20448;-74
2022/03/16 00:45:12;;;;;;;56.20;35.80;;;;;;;11.46;55.63;101951.84;4992649;28;20046;-73
2022/03/16 00:47:57;;;;;;;55.47;34.88;;;;;;;11.44;55.94;101945.84;4992674;28;20046;-73
2022/03/16 00:50:42;;;;;;;43.38;28.20;;;;;;;11.40;56.20;101952.19;4995592;28;20042;-74
2022/03/16 00:53:28;;;;;;;58.70;34.67;;;;;;;11.33;56.47;101943.53;4986199;28;20493;-74
2022/03/16 00:56:13;;;;;;;66.55;35.30;;;;;;;11.36;56.38;101943.78;4992389;28;20050;-74
2022/03/16 00:58:58;;;;;;;40.80;25.27;;;;;;;11.47;56.12;101934.41;4992504;28;20038;-74
2022/03/16 01:01:43;;;;;;;46.72;26.95;;;;;;;11.59;55.56;101923.88;4992593;28;20042;-74
2022/03/16 01:04:30;;;;;;;49.08;33.75;;;;;;;11.61;55.38;101925.50;4992502;28;20038;-73
2022/03/16 01:07:15;;;;;;;40.95;26.23;;;;;;;11.56;55.28;101927.19;4992532;28;20234;-73
2022/03/16 01:09:59;;;;;;;36.97;27.17;;;;;;;11.45;55.88;101922.16;4992581;28;20046;-74
2022/03/16 01:12:44;;;;;;;40.65;27.67;;;;;;;11.43;55.92;101916.19;4992615;28;20038;-74
2022/03/16 01:15:30;;;;;;;57.10;33.95;;;;;;;11.30;56.47;101909.53;4992463;28;20046;-74
2022/03/16 01:18:16;;;;;;;48.45;33.42;;;;;;;11.35;56.63;101908.66;4991622;28;20050;-74
2022/03/16 01:21:04;;;;;;;56.13;34.88;;;;;;;11.39;56.07;101898.81;4992455;28;20042;-74
2022/03/16 01:23:51;;;;;;;53.15;34.70;;;;;;;11.29;56.21;101896.22;5001682;28;20038;-74
2022/03/16 01:26:36;;;;;;;57.13;37.00;;;;;;;11.38;55.39;101897.19;4996538;28;20513;-74
2022/03/16 01:29:24;;;;;;;59.65;35.35;;;;;;;11.35;56.17;101898.59;4996143;28;20050;-74
2022/03/16 01:32:09;;;;;;;55.55;35.60;;;;;;;11.34;56.49;101896.16;4996223;28;20042;-74
2022/03/16 01:34:54;;;;;;;44.15;28.02;;;;;;;11.40;55.86;101884.09;4996405;28;20054;-74
2022/03/16 01:37:41;;;;;;;46.08;29.70;;;;;;;11.31;56.07;101886.66;4995967;28;20038;-73
2022/03/16 01:40:26;;;;;;;60.75;36.67;;;;;;;11.31;56.37;101885.84;4995971;28;20046;-74
2022/03/16 01:43:11;;;;;;;;;;;;;;;11.29;56.75;101871.69;5001840;28;20498;-74
2022/03/16 01:45:56;;;;;;;59.78;36.13;;;;;;;11.36;56.65;101877.63;4995879;28;19926;-74
2022/03/16 01:48:41;;;;;;;42.30;29.02;;;;;;;11.43;56.00;101873.41;4996041;28;20042;-74
2022/03/16 01:51:26;;;;;;;39.63;28.52;;;;;;;11.39;56.10;101871.56;4995897;28;20050;-74
2022/03/16 01:54:12;;;;;;;40.33;27.88;;;;;;;11.31;56.21;101867.59;4995974;28;20042;-74
2022/03/16 01:56:57;;;;;;;55.50;36.72;;;;;;;11.29;56.47;101868.97;4994663;28;20046;-74
2022/03/16 01:59:42;;;;;;;52.25;30.90;;;;;;;11.27;56.54;101863.84;4995591;28;20406;-74
2022/03/16 02:02:27;;;;;;;65.68;36.90;;;;;;;11.27;56.71;101857.59;4995557;28;20046;-74
2022/03/16 02:05:12;;;;;;;43.00;27.73;;;;;;;11.30;56.68;101855.06;4995620;28;20494;-73
2022/03/16 02:07:58;;;;;;;51.53;32.25;;;;;;;11.22;56.87;101850.28;4995479;28;20050;-74
2022/03/16 02:10:43;;;;;;;52.90;35.53;;;;;;;11.10;57.30;101847.97;5000858;28;20035;-74
2022/03/16 02:13:28;;;;;;;58.70;35.80;;;;;;;11.15;57.19;101847.91;4995325;28;20049;-74
2022/03/16 02:16:13;;;;;;;46.53;28.40;;;;;;;11.18;57.33;101845.69;4995343;28;20497;-73
2022/03/16 02:18:58;;;;;;;45.85;29.92;;;;;;;11.19;56.90;101841.88;4995370;28;20050;-74
2022/03/16 02:21:49;;;;;;;47.25;28.45;;;;;;;11.20;56.99;101848.94;4995499;28;20038;-74
2022/03/16 02:24:33;;;;;;;61.70;37.00;;;;;;;11.13;56.99;101841.94;4995421;28;20496;-74
2022/03/16 02:27:18;;;;;;;47.10;32.85;;;;;;;11.19;57.06;101833.72;4995161;28;20046;-74
2022/03/16 02:30:04;;;;;;;54.95;37.13;;;;;;;11.12;57.17;101834.09;4994943;28;20046;-74
2022/03/16 02:32:49;;;;;;;59.03;39.60;;;;;;;11.09;57.29;101830.03;4994903;28;20047;-74
2022/03/16 02:35:34;;;;;;;61.38;39.53;;;;;;;11.17;57.03;101834.03;4994483;28;20042;-74
2022/03/16 02:38:19;;;;;;;55.05;43.10;;;;;;;11.14;57.02;101831.88;4995014;28;20046;-74
2022/03/16 02:41:04;;;;;;;61.97;39.22;;;;;;;11.09;56.90;101826.47;4995007;28;20034;-74
2022/03/16 02:43:50;;;;;;;53.03;30.83;;;;;;;11.08;56.90;101831.13;4995032;28;20046;-74
2022/03/16 02:46:34;;;;;;;59.67;39.13;;;;;;;11.06;57.12;101827.06;4995080;28;20038;-73
2022/03/16 02:49:19;;;;;;;43.05;30.75;;;;;;;11.11;56.69;101825.09;4994904;28;20047;-74
2022/03/16 02:52:08;;;;;;;57.92;31.42;;;;;;;11.14;56.64;101827.22;5000333;28;20050;-74
2022/03/16 02:54:53;;;;;;;66.32;40.22;;;;;;;11.21;56.59;101826.06;4994821;28;20038;-74
2022/03/16 02:57:40;;;;;;;45.97;31.52;;;;;;;11.32;56.02;101827.56;4995385;28;20046;-73
2022/03/16 03:00:26;;;;;;;62.40;40.25;;;;;;;11.25;56.14;101827.09;5000074;28;20041;-73
2022/03/16 03:03:12;;;;;;;62.17;39.03;;;;;;;11.21;56.58;101817.91;4994411;28;20042;-74
2022/03/16 03:05:57;;;;;;;60.15;40.78;;;;;;;11.23;56.44;101815.69;4994447;28;20038;-74
2022/03/16 03:08:42;;;;;;;66.97;39.90;;;;;;;11.18;56.81;101810.31;4994450;28;20506;-73
2022/03/16 03:11:27;;;;;;;49.35;32.45;;;;;;;11.21;56.49;101813.28;4994307;28;20046;-74
2022/03/16 03:14:12;;;;;;;49.83;30.73;;;;;;;11.17;56.70;101811.44;4999956;28;20046;-74
2022/03/16 03:16:57;;;;;;;66.88;41.80;;;;;;;11.17;56.73;101803.25;4994214;28;20042;-74
2022/03/16 03:19:43;;;;;;;46.47;31.42;;;;;;;11.08;57.06;101806.63;4994275;28;20493;-74
2022/03/16 03:22:28;;;;;;;64.78;39.38;;;;;;;11.06;57.21;101797.94;4994151;28;20042;-74
2022/03/16 03:25:14;;;;;;;46.65;31.58;;;;;;;11.10;57.02;101793.53;4999698;28;20406;-73
2022/03/16 03:27:59;;;;;;;59.35;39.00;;;;;;;11.26;56.89;101796.06;4993830;28;20047;-74
2022/03/16 03:30:44;;;;;;;39.20;28.13;;;;;;;11.25;57.06;101800.69;4993982;28;20050;-73
2022/03/16 03:33:30;;;;;;;45.60;31.65;;;;;;;11.15;57.23;101796.19;4999581;28;20046;-74
2022/03/16 03:36:15;;;;;;;60.20;38.72;;;;;;;11.20;57.43;101792.59;4993917;28;20046;-74
2022/03/16 03:39:00;;;;;;;42.08;29.58;;;;;;;11.21;57.52;101790.69;4993934;28;20045;-74
2022/03/16 03:41:45;;;;;;;43.90;31.35;;;;;;;11.21;57.15;101787.97;4993901;28;20058;-74
2022/03/16 03:44:29;;;;;;;47.38;31.23;;;;;;;11.21;57.09;101785.22;4993646;28;20058;-74
2022/03/16 03:47:15;;;;;;;43.65;28.13;;;;;;;11.14;57.43;101780.94;4993770;28;20406;-74
2022/03/16 03:49:59;;;;;;;44.92;30.40;;;;;;;11.13;57.29;101779.31;4993808;28;20038;-74
2022/03/16 03:52:44;;;;;;;51.30;30.90;;;;;;;11.06;57.38;101770.72;4993802;28;20038;-74
2022/03/16 03:55:29;;;;;;;47.45;31.15;;;;;;;11.01;57.23;101767.25;4993733;28;20042;-74
2022/03/16 03:58:14;;;;;;;54.08;29.58;;;;;;;11.07;57.24;101766.09;4993374;28;20494;-74
2022/03/16 04:00:59;;;;;;;46.30;30.63;;;;;;;11.02;57.41;101756.06;4993859;28;20042;-74
2022/03/16 04:03:44;;;;;;;48.38;31.98;;;;;;;11.07;57.27;101761.44;4993906;28;20042;-74
2022/03/16 04:06:29;;;;;;;48.70;31.02;;;;;;;11.02;57.56;101764.22;4993535;28;20043;-73
2022/03/16 04:09:14;;;;;;;45.78;30.00;;;;;;;11.07;57.40;101756.00;4993284;28;20050;-73
2022/03/16 04:11:59;;;;;;;46.88;30.40;;;;;;;11.12;57.45;101760.59;4993379;28;20035;-73
2022/03/16 04:14:43;;;;;;;65.35;41.92;;;;;;;11.05;57.72;101758.22;4993271;28;20046;-74
2022/03/16 04:17:28;;;;;;;46.38;29.80;;;;;;;10.99;58.03;101759.38;4993051;28;20046;-74
2022/03/16 04:20:13;;;;;;;57.95;39.08;;;;;;;10.98;57.97;101755.03;4998661;28;20054;-74
2022/03/16 04:22:58;;;;;;;48.50;32.47;;;;;;;10.91;58.02;101751.88;4997549;28;20034;-74
2022/03/16 04:25:43;;;;;;;50.20;31.00;;;;;;;10.97;57.64;101747.97;4993056;28;20043;-73
2022/03/16 04:28:28;;;;;;;45.15;30.58;;;;;;;11.01;57.76;101750.94;4992905;28;20046;-74
2022/03/16 04:31:13;;;;;;;50.92;34.78;;;;;;;11.03;57.38;101746.00;5010075;23;20046;-81
2022/03/16 04:33:58;;;;;;;52.75;31.67;;;;;;;10.99;57.40;101740.31;4989914;28;20510;-81
2022/03/16 04:36:43;;;;;;;62.17;41.50;;;;;;;11.00;57.37;101739.22;4993246;28;20042;-81
2022/03/16 04:39:28;;;;;;;65.63;42.83;;;;;;;10.92;57.97;101737.16;4993673;28;20042;-81
2022/03/16 04:42:12;;;;;;;59.70;40.33;;;;;;;10.90;57.93;101733.94;4978892;28;20047;-80
2022/03/16 04:44:57;;;;;;;44.28;29.55;;;;;;;10.87;58.31;101731.78;4973428;28;20285;-81
2022/03/16 04:47:42;;;;;;;66.38;41.10;;;;;;;10.83;58.37;101727.22;4975278;28;20042;-80
2022/03/16 04:50:26;;;;;;;59.13;39.95;;;;;;;10.88;58.21;101730.66;4979768;28;20030;-81
2022/03/16 04:53:11;;;;;;;64.50;41.33;;;;;;;10.76;58.50;101716.69;4996478;28;20419;-81
2022/03/16 04:55:55;;;;;;;48.05;33.78;;;;;;;10.73;59.01;101725.44;4992624;28;20058;-81
2022/03/16 04:58:40;;;;;;;73.45;41.95;;;;;;;10.80;58.60;101723.19;4992808;28;20042;-81
2022/03/16 05:01:24;;;;;;;61.80;40.00;;;;;;;10.81;58.50;101730.25;4992292;28;20042;-81
2022/03/16 05:04:09;;;;;;;52.63;31.90;;;;;;;10.79;58.40;101727.00;4992475;28;20046;-81
2022/03/16 05:06:54;;;;;;;48.50;32.00;;;;;;;10.97;57.90;101736.28;4988169;28;20050;-81
2022/03/16 05:09:39;;;;;;;54.83;33.58;;;;;;;10.84;57.96;101721.47;4990751;28;20442;-81
2022/03/16 05:12:24;;;;;;;61.78;40.30;;;;;;;10.88;58.10;101725.22;4992101;28;20042;-80
2022/03/16 05:15:12;;;;;;;46.22;30.17;;;;;;;10.99;58.14;101725.91;4992270;28;20046;-81
2022/03/16 05:17:56;;;;;;;61.10;39.88;;;;;;;10.99;57.68;101728.63;4995527;28;20042;-80
2022/03/16 05:20:41;;;;;;;52.35;31.70;;;;;;;11.02;57.49;101726.13;4989428;28;20047;-81
2022/03/16 05:23:26;;;;;;;54.20;33.03;;;;;;;11.04;57.76;101728.56;4986128;28;20042;-79
2022/03/16 05:26:11;;;;;;;56.30;33.00;;;;;;;10.98;57.54;101733.25;4988981;28;20050;-80
2022/03/16 05:28:56;;;;;;;50.45;31.63;;;;;;;10.93;57.89;101738.78;4989901;28;20507;-81
2022/03/16 05:31:41;;;;;;;51.60;33.50;;;;;;;10.93;57.65;101741.50;4977181;28;20046;-81
2022/03/16 05:34:26;;;;;;;66.95;41.58;;;;;;;10.98;57.66;101741.44;4994878;28;20045;-81
2022/03/16 05:37:10;;;;;;;72.03;41.83;;;;;;;10.92;58.11;101741.81;4988977;28;20511;-80
2022/03/16 05:39:55;;;;;;;51.70;32.35;;;;;;;10.86;58.27;101742.97;4980396;28;20281;-81
2022/03/16 05:42:40;;;;;;;66.50;40.65;;;;;;;10.82;58.33;101731.84;4990847;28;20042;-81
2022/03/16 05:45:25;;;;;;;61.80;41.45;;;;;;;10.82;58.52;101747.38;4987810;28;20034;-81
2022/03/16 05:48:10;;;;;;;49.30;31.50;;;;;;;10.75;58.83;101738.75;4994304;28;20046;-81
2022/03/16 05:50:55;;;;;;;48.15;31.48;;;;;;;10.79;58.31;101737.06;4992014;28;20411;-82
2022/03/16 05:53:40;;;;;;;66.97;38.90;;;;;;;10.78;58.45;101751.75;4991505;28;20042;-81
2022/03/16 05:56:24;;;;;;;49.28;32.47;;;;;;;10.74;58.55;101740.66;4994223;28;20054;-82
2022/03/16 05:59:09;;;;;;;63.78;41.28;;;;;;;10.70;58.46;101743.16;4992521;28;20042;-81
2022/03/16 06:01:53;;;;;;;53.22;33.58;;;;;;;10.92;57.72;101742.59;4992704;28;20499;-81
2022/03/16 06:04:39;;;;;;;61.08;41.30;;;;;;;10.84;57.88;101745.97;4984177;28;20042;-83
2022/03/16 06:07:24;;;;;;;63.80;42.00;;;;;;;10.81;57.81;101749.28;4997999;28;20042;-83
2022/03/16 06:10:12;;;;;;;56.10;32.22;;;;;;;10.99;57.79;101750.41;4999195;28;20511;-82
2022/03/16 06:12:58;;;;;;;63.67;41.10;;;;;;;10.95;57.77;101758.34;4997932;28;20499;-83
2022/03/16 06:15:44;;;;;;;66.10;40.85;;;;;;;10.90;57.91;101746.72;4996669;28;20050;-83
2022/03/16 06:18:28;;;;;;;73.32;45.33;;;;;;;11.01;58.17;101757.19;5000544;28;20515;-83
2022/03/16 06:21:13;;;;;;;62.25;34.90;;;;;;;10.87;58.16;101755.47;4996392;28;20050;-83
2022/03/16 06:24:00;;;;;;;53.72;34.42;;;;;;;11.09;57.88;101753.00;4996616;28;20042;-83
2022/03/16 06:26:45;;;;;;;67.63;42.88;;;;;;;10.96;58.68;101767.31;4995739;28;20045;-83
2022/03/16 06:29:30;;;;;;;59.40;36.47;;;;;;;10.98;58.49;101762.38;5000470;28;20046;-84
2022/03/16 06:32:14;;;;;;;56.40;35.70;;;;;;;10.90;59.05;101765.75;4996959;28;20042;-83
2022/03/16 06:34:59;;;;;;;71.10;44.17;;;;;;;10.90;58.91;101763.84;5000872;28;20046;-82
2022/03/16 06:37:45;;;;;;;56.97;35.83;;;;;;;10.93;58.87;101755.09;5005444;28;20047;-84
2022/03/16 06:40:29;;;;;;;78.90;45.15;;;;;;;11.01;58.61;101759.91;4994672;28;20423;-83
2022/03/16 06:43:14;;;;;;;55.28;35.92;;;;;;;10.97;59.01;101761.56;5000786;28;20491;-84
2022/03/16 06:45:59;;;;;;;81.03;42.70;;;;;;;10.95;59.55;101757.53;4995523;28;20042;-84
2022/03/16 06:48:44;;;;;;;56.92;34.75;;;;;;;11.01;59.46;101762.63;4984691;28;20042;-83
2022/03/16 06:51:28;;;;;;;74.35;44.50;;;;;;;11.05;59.50;101758.22;4983347;28;20042;-83
2022/03/16 06:54:13;;;;;;;60.42;37.28;;;;;;;10.92;59.58;101756.19;4998354;28;20042;-84
2022/03/16 06:56:58;;;;;;;62.45;35.92;;;;;;;11.18;59.48;101767.56;4996508;28;20054;-83
2022/03/16 06:59:42;;;;;;;56.03;36.40;;;;;;;11.02;59.37;101764.22;4994193;28;20039;-82
2022/03/16 07:02:27;;;;;;;73.53;44.95;;;;;;;11.12;59.24;101769.53;4998406;28;20436;-83
2022/03/16 07:05:12;;;;;;;58.55;36.05;;;;;;;10.89;60.22;101769.59;4996873;28;20438;-84
2022/03/16 07:07:58;;;;;;;73.70;47.67;;;;;;;10.88;60.44;101781.56;4995200;28;20046;-83
2022/03/16 07:10:44;;;;;;;82.15;45.95;;;;;;;11.11;59.95;101781.56;4996646;28;20045;-82
2022/03/16 07:13:28;;;;;;;81.60;47.53;;;;;;;10.97;60.32;101782.56;4996529;28;20034;-82
2022/03/16 07:16:13;;;;;;;80.60;46.13;;;;;;;11.04;60.28;101783.00;4995307;28;20050;-83
2022/03/16 07:19:00;;;;;;;75.82;44.92;;;;;;;11.03;60.53;101786.81;4994346;28;20447;-84
2022/03/16 07:21:44;;;;;;;81.15;49.47;;;;;;;10.96;60.48;101787.19;4993579;28;20050;-84
2022/03/16 07:24:29;;;;;;;67.95;39.03;;;;;;;10.97;60.81;101793.44;4994865;28;20050;-83
2022/03/16 07:27:14;;;;;;;56.75;36.85;;;;;;;10.98;61.15;101790.41;4999011;28;20439;-84
2022/03/16 07:29:59;;;;;;;66.25;37.97;;;;;;;11.06;60.71;101788.97;4996521;28;20431;-84
2022/03/16 07:32:44;;;;;;;56.00;36.20;;;;;;;10.97;61.40;101788.78;4995297;28;20034;-84
2022/03/16 07:35:30;;;;;;;69.60;39.22;;;;;;;10.96;61.24;101789.91;4993473;28;20251;-84
2022/03/16 07:38:15;;;;;;;84.32;48.03;;;;;;;11.15;60.45;101787.22;4996379;28;20042;-84
2022/03/16 07:41:02;;;;;;;76.30;45.80;;;;;;;11.17;60.48;101789.66;4994621;28;20210;-84
2022/03/16 07:43:47;;;;;;;80.68;48.67;;;;;;;11.19;60.43;101796.41;4998609;28;20042;-84
2022/03/16 07:46:31;;;;;;;80.63;46.67;;;;;;;11.27;60.38;101792.25;4997234;28;20487;-85
2022/03/16 07:49:16;;;;;;;80.55;45.65;;;;;;;11.24;60.41;101792.81;4995071;28;20054;-82
2022/03/16 07:52:01;;;;;;;80.97;47.10;;;;;;;11.21;60.41;101786.03;4993155;28;20046;-84
2022/03/16 07:54:45;;;;;;;72.43;46.50;;;;;;;11.27;60.06;101789.50;4997098;28;20046;-84
2022/03/16 07:57:30;;;;;;;67.93;39.50;;;;;;;11.26;60.64;101791.41;4994105;28;20227;-84
2022/03/16 08:00:16;;;;;;;91.25;47.63;;;;;;;11.19;60.90;101788.25;4992960;28;20046;-85
2022/03/16 08:03:01;;;;;;;78.25;46.25;;;;;;;11.47;60.05;101791.94;4997261;28;20046;-85
2022/03/16 08:05:47;;;;;;;84.55;48.20;;;;;;;11.51;60.17;101787.53;4995682;28;20047;-85
2022/03/16 08:08:31;;;;;;;78.10;46.00;;;;;;;11.49;60.36;101795.16;4993420;28;20042;-83
2022/03/16 08:11:16;;;;;;;65.65;37.35;;;;;;;11.45;60.40;101796.88;4994278;28;20046;-85
2022/03/16 08:14:01;;;;;;;77.72;44.72;;;;;;;11.49;60.02;101795.16;4995255;28;20049;-84
2022/03/16 08:16:45;;;;;;;84.63;45.88;;;;;;;11.67;59.53;101780.75;4993339;28;20046;-84
2022/03/16 08:19:30;;;;;;;71.85;43.42;;;;;;;11.86;59.34;101787.00;4996891;28;20054;-84
2022/03/16 08:22:26;;;;;;;58.95;35.25;;;;;;;11.80;59.25;101788.19;4997528;28;20038;-86
2022/03/16 08:25:11;;;;;;;;;;;;;;;11.81;59.56;101797.19;4996062;28;20414;-85
2022/03/16 08:27:55;;;;;;;73.72;44.55;;;;;;;11.82;59.11;101787.91;4997184;28;19921;-84
2022/03/16 08:30:41;;;;;;;57.45;35.80;;;;;;;11.88;59.31;101794.91;4994890;28;20046;-84
2022/03/16 08:33:26;;;;;;;81.75;48.33;;;;;;;11.97;58.64;101793.09;4992909;28;20046;-83
2022/03/16 08:36:11;;;;;;;81.95;49.25;;;;;;;11.94;58.49;101797.22;4997293;28;20050;-84
2022/03/16 08:39:00;;;;;;;82.47;49.13;;;;;;;12.04;58.39;101790.00;4993393;28;20050;-83
2022/03/16 08:41:46;;;;;;;83.03;48.75;;;;;;;12.01;58.42;101788.66;4991575;28;20046;-84
2022/03/16 08:44:31;;;;;;;82.95;49.05;;;;;;;12.14;57.81;101787.88;4996833;28;20046;-83
2022/03/16 08:47:16;;;;;;;63.70;37.05;;;;;;;12.27;57.46;101775.41;4995601;28;20046;-82
2022/03/16 08:50:01;;;;;;;74.00;46.38;;;;;;;12.26;58.08;101780.03;4993075;28;20054;-84
2022/03/16 08:52:47;;;;;;;63.17;37.35;;;;;;;12.31;57.66;101781.88;4997123;28;20038;-83
2022/03/16 08:55:36;;;;;;;87.35;49.60;;;;;;;12.16;58.22;101784.88;4995441;28;20054;-81
2022/03/16 08:58:20;;;;;;;89.35;48.78;;;;;;;12.28;57.98;101777.84;4993796;28;20419;-83
2022/03/16 09:01:08;;;;;;;61.45;38.17;;;;;;;12.42;57.58;101778.66;4994196;28;20050;-86
2022/03/16 09:03:53;;;;;;;79.88;49.08;;;;;;;12.64;57.25;101777.97;4995665;28;20042;-84
2022/03/16 09:06:38;;;;;;;82.70;49.28;;;;;;;12.81;56.55;101778.16;4994183;28;20038;-83
2022/03/16 09:09:22;;;;;;;80.85;48.67;;;;;;;12.73;56.79;101776.16;4993491;28;20042;-84
2022/03/16 09:12:11;;;;;;;61.80;38.15;;;;;;;12.65;56.90;101776.03;4993760;28;20042;-82
2022/03/16 09:14:56;;;;;;;76.55;47.85;;;;;;;12.74;56.71;101785.16;4992497;28;20046;-85
2022/03/16 09:17:40;;;;;;;73.80;38.72;;;;;;;12.78;56.13;101778.78;4996900;28;20038;-84
2022/03/16 09:20:25;;;;;;;;;;;;;;;12.84;56.10;101774.84;4994839;28;20046;-85
2022/03/16 09:23:10;;;;;;;86.63;47.05;;;;;;;12.62;56.88;101772.00;5001988;28;20290;-84
2022/03/16 09:25:55;;;;;;;60.35;37.78;;;;;;;12.79;56.57;101769.47;4997758;28;20054;-82
2022/03/16 09:28:40;;;;;;;65.50;39.60;;;;;;;12.86;56.52;101769.88;4995850;28;20046;-85
2022/03/16 09:31:24;;;;;;;;;;;;;;;12.96;55.60;101768.03;4993724;28;20046;-83
2022/03/16 09:34:09;;;;;;;73.75;46.38;;;;;;;12.80;56.03;101753.88;4991581;28;19918;-85
2022/03/16 09:36:54;;;;;;;;;;;;;;;12.92;55.27;101756.09;4996621;28;20062;-85
2022/03/16 09:39:39;;;;;;;78.68;45.97;;;;;;;12.93;55.15;101752.28;5008675;28;19914;-86
2022/03/16 09:42:26;;;;;;;61.88;36.67;;;;;;;12.89;55.49;101754.00;4993685;28;20038;-85
2022/03/16 09:45:18;;;;;;;76.70;48.33;;;;;;;12.96;55.72;101747.00;4996692;28;20042;-85
2022/03/16 09:48:03;;;;;;;93.75;48.00;;;;;;;13.04;55.45;101748.22;4992751;28;20043;-84
2022/03/16 09:50:48;;;;;;;61.20;38.40;;;;;;;13.11;55.45;101734.94;4997525;28;20418;-84
2022/03/16 09:53:33;;;;;;;87.20;49.03;;;;;;;13.15;55.57;101733.25;5000760;28;20034;-86
2022/03/16 09:56:19;;;;;;;71.25;38.72;;;;;;;13.30;55.31;101735.66;5007031;28;20050;-83
2022/03/16 09:59:05;;;;;;;70.65;44.30;;;;;;;13.27;55.16;101738.97;5006296;28;20043;-84
2022/03/16 10:02:06;;;;;;;77.13;46.80;;;;;;;13.24;54.97;101734.13;5005382;28;20041;-85
2022/03/16 10:04:53;;;;;;;72.22;46.92;;;;;;;13.27;54.74;101733.50;5009152;28;20050;-83
2022/03/16 10:07:38;;;;;;;76.47;45.95;;;;;;;13.32;54.94;101724.38;5011997;28;20046;-82
2022/03/16 10:13:34;;;;;;;86.93;46.55;;;;;;;13.46;54.50;101731.41;5001546;28;19914;-85
2022/03/16 10:16:19;;;;;;;64.53;34.78;;;;;;;13.52;54.50;101719.25;5003166;28;20050;-83
2022/03/16 10:19:04;;;;;;;72.80;45.05;;;;;;;13.64;53.88;101716.78;5003115;28;20046;-82
2022/03/16 10:22:00;;;;;;;;;;;;;;;13.61;53.93;101711.91;5004770;28;20050;-85
2022/03/16 10:24:45;;;;;;;69.10;44.15;;;;;;;13.63;54.20;101712.44;4989896;28;19914;-84
2022/03/16 10:27:30;;;;;;;79.05;44.80;;;;;;;13.62;54.21;101708.06;4989108;28;20419;-84
2022/03/16 10:30:16;;;;;;;73.90;46.47;;;;;;;13.69;54.08;101702.97;4986534;28;20399;-83
2022/03/16 10:33:01;;;;;;;80.85;44.63;;;;;;;13.85;53.34;101691.66;4990587;28;20039;-86
2022/03/16 10:36:06;;;;;;;;;;;;;;;13.74;54.08;101702.03;4988865;28;20057;-85
2022/03/16 10:38:54;;;;;;;68.40;42.15;;;;;;;13.79;53.67;101690.97;4985749;28;19918;-85
2022/03/16 10:47:52;;;;;;;64.45;40.17;;;;;;;13.96;53.07;101677.41;5003790;28;20038;-85
2022/03/16 10:50:39;;;;;;;69.30;43.88;;;;;;;14.01;53.31;101671.81;4996498;28;20062;-84
2022/03/16 10:53:28;;;;;;;67.15;43.42;;;;;;;14.08;52.91;101669.41;4994711;28;20042;-83
2022/03/16 10:56:17;;;;;;;64.68;40.25;;;;;;;14.09;53.15;101659.28;4991880;28;20043;-82
2022/03/16 10:59:03;;;;;;;70.88;41.40;;;;;;;14.06;52.71;101654.44;5053628;22;20043;-76
2022/03/16 11:01:48;;;;;;;68.63;41.15;;;;;;;13.99;52.94;101652.16;4981077;28;20054;-75
2022/03/16 11:04:35;;;;;;;70.70;43.63;;;;;;;14.02;52.77;101648.78;4967637;28;20502;-75
2022/03/16 11:07:21;;;;;;;69.88;44.72;;;;;;;14.08;52.64;101652.19;4975122;28;20046;-75
2022/03/16 11:10:07;;;;;;;68.50;41.15;;;;;;;14.14;52.88;101645.47;4969254;28;20042;-75
2022/03/16 11:15:58;;;;;;;68.15;42.95;;;;;;;14.21;52.38;101631.34;4967284;28;20526;-76
2022/03/16 11:18:46;;;;;;;68.40;44.00;;;;;;;14.25;52.33;101635.84;4975056;28;20054;-76
2022/03/16 11:21:48;;;;;;;72.18;44.70;;;;;;;14.31;51.84;101634.59;5014067;28;20050;-75
2022/03/16 11:24:38;;;;;;;68.18;42.65;;;;;;;14.39;52.13;101622.88;5005724;28;20038;-75
2022/03/16 11:27:40;;;;;;;64.65;41.47;;;;;;;14.46;51.91;101623.22;5013931;28;20037;-76
2022/03/16 11:30:36;;;;;;;63.15;41.60;;;;;;;14.46;51.81;101620.50;5005341;28;20046;-76
2022/03/16 11:33:21;;;;;;;63.55;39.72;;;;;;;14.54;51.12;101621.63;5013705;28;20397;-76
2022/03/16 11:36:07;;;;;;;72.22;44.13;;;;;;;14.53;51.01;101620.81;5013840;28;20560;-76
2022/03/16 11:38:51;;;;;;;52.35;31.85;;;;;;;14.58;51.37;101605.38;5013603;28;20046;-76
2022/03/16 11:41:38;;;;;;;;;;;;;;;14.61;51.01;101596.50;5014126;28;20045;-76
2022/03/16 11:44:26;;;;;;;67.63;40.47;;;;;;;14.71;51.05;101593.47;5013716;28;19913;-76
2022/03/16 11:47:11;;;;;;;78.90;43.22;;;;;;;14.78;50.76;101583.63;5001656;28;20050;-76
2022/03/16 11:50:11;;;;;;;65.93;40.28;;;;;;;14.83;50.47;101588.94;5005228;28;20042;-75
2022/03/16 11:53:04;;;;;;;69.82;41.83;;;;;;;14.82;50.63;101589.28;5013329;28;20046;-75
2022/03/16 11:55:50;;;;;;;70.90;41.53;;;;;;;14.93;50.27;101579.63;5005113;28;20042;-76
2022/03/16 11:58:39;;;;;;;68.72;41.92;;;;;;;14.95;50.57;101575.41;5005463;28;20041;-76
2022/03/16 12:01:28;;;;;;;64.60;40.13;;;;;;;14.97;50.55;101572.38;5004889;28;20038;-75
2022/03/16 12:04:15;;;;;;;60.33;39.10;;;;;;;14.98;50.56;101568.50;5001943;28;20030;-73
2022/03/16 12:07:02;;;;;;;64.85;37.45;;;;;;;14.97;50.31;101566.88;5011743;28;20049;-73
2022/03/16 12:09:54;;;;;;;60.28;38.25;;;;;;;14.98;50.26;101565.75;4996168;28;20038;-73
2022/03/16 12:12:54;;;;;;;65.85;35.70;;;;;;;15.09;50.20;101539.63;5011527;28;20477;-74
2022/03/16 12:15:42;;;;;;;56.20;31.90;;;;;;;15.20;50.62;101551.84;5004687;28;20057;-73
2022/03/16 12:18:28;;;;;;;53.90;32.92;;;;;;;15.31;49.84;101557.78;5010967;28;20038;-73
2022/03/16 12:21:14;;;;;;;52.20;31.52;;;;;;;15.31;50.14;101558.59;5011383;28;20045;-73
2022/03/16 12:23:58;;;;;;;50.10;30.42;;;;;;;18.82;42.02;101559.50;5002835;28;20037;-72
2022/03/16 12:28:55;;;;;;;;;;;;;;;19.61;39.63;101553.00;5006658;28;20053;-72
2022/03/16 12:29:54;;;;;;;51.97;29.45;;;;;;;18.69;41.96;101550.50;5017587;28;19920;-72
2022/03/16 12:32:38;;;;;;;58.83;29.45;;;;;;;18.34;43.02;101547.44;5017087;28;20506;-73
2022/03/16 12:35:25;;;;;;;;;;;;;;;18.17;42.81;101536.69;5010318;28;20041;-73
2022/03/16 12:38:10;;;;;;;51.35;29.55;;;;;;;18.17;42.91;101522.94;5009770;28;19914;-73
2022/03/16 12:44:09;;;;;;;53.58;28.95;;;;;;;18.21;42.80;101521.06;4992688;28;20030;-73
2022/03/16 12:47:06;;;;;;;44.75;29.95;;;;;;;17.73;44.25;101519.97;4992592;28;20046;-73
2022/03/16 12:49:52;;;;;;;42.35;26.38;;;;;;;17.95;43.70;101507.69;5019664;28;20049;-73
2022/03/16 12:52:39;;;;;;;50.38;29.42;;;;;;;18.12;43.50;101506.66;5012241;28;20057;-73